sensor_id;sensor_type;location;lat;lon;timestamp;temperature;humidity
14585;DHT22;7379;51.506;11.876;2022-09-29T00:02:20;11.10;96.40
14585;DHT22;7379;51.506;11.876;2022-09-29T00:04:47;11.10;96.40
14585;DHT22;7379;51.506;11.876;2022-09-29T00:07:15;11.10;96.40
14585;DHT22;7379;51.506;11.876;2022-09-29T00:09:42;11.10;96.40
14585;DHT22;7379;51.506;11.876;2022-09-29T00:12:09;11.10;96.40
14585;DHT22;7379;51.506;11.876;2022-09-29T00:14:35;11.00;96.40
14585;DHT22;7379;51.506;11.876;2022-09-29T00:17:03;11.10;96.50
14585;DHT22;7379;51.506;11.876;2022-09-29T00:19:30;11.00;96.40
14585;DHT22;7379;51.506;11.876;2022-09-29T00:21:58;11.00;96.40
14585;DHT22;7379;51.506;11.876;2022-09-29T00:24:26;11.00;96.40
14585;DHT22;7379;51.506;11.876;2022-09-29T00:26:53;11.00;96.40
14585;DHT22;7379;51.506;11.876;2022-09-29T00:29:20;11.00;96.40
14585;DHT22;7379;51.506;11.876;2022-09-29T00:31:47;11.00;96.40
14585;DHT22;7379;51.506;11.876;2022-09-29T00:34:14;11.00;96.40
14585;DHT22;7379;51.506;11.876;2022-09-29T00:36:40;11.00;96.40
14585;DHT22;7379;51.506;11.876;2022-09-29T00:39:07;11.00;96.40
14585;DHT22;7379;51.506;11.876;2022-09-29T00:41:37;11.00;96.40
14585;DHT22;7379;51.506;11.876;2022-09-29T00:44:06;11.00;96.50
14585;DHT22;7379;51.506;11.876;2022-09-29T00:46:56;11.00;96.40
14585;DHT22;7379;51.506;11.876;2022-09-29T00:49:27;11.00;96.40
14585;DHT22;7379;51.506;11.876;2022-09-29T00:51:57;10.90;96.40
14585;DHT22;7379;51.506;11.876;2022-09-29T00:54:27;11.00;96.80
14585;DHT22;7379;51.506;11.876;2022-09-29T00:56:57;11.00;96.40
14585;DHT22;7379;51.506;11.876;2022-09-29T00:59:31;10.90;96.40
14585;DHT22;7379;51.506;11.876;2022-09-29T01:02:02;10.90;96.40
14585;DHT22;7379;51.506;11.876;2022-09-29T01:04:30;10.90;96.40
14585;DHT22;7379;51.506;11.876;2022-09-29T01:06:58;10.90;96.40
14585;DHT22;7379;51.506;11.876;2022-09-29T01:09:28;10.90;96.40
14585;DHT22;7379;51.506;11.876;2022-09-29T01:11:57;10.90;96.40
14585;DHT22;7379;51.506;11.876;2022-09-29T01:14:25;10.90;96.40
14585;DHT22;7379;51.506;11.876;2022-09-29T01:16:52;10.90;96.40
14585;DHT22;7379;51.506;11.876;2022-09-29T01:19:25;10.80;96.30
14585;DHT22;7379;51.506;11.876;2022-09-29T01:22:02;10.80;96.40
14585;DHT22;7379;51.506;11.876;2022-09-29T01:24:53;10.80;96.30
14585;DHT22;7379;51.506;11.876;2022-09-29T01:27:46;10.80;96.40
14585;DHT22;7379;51.506;11.876;2022-09-29T01:30:22;10.80;96.30
14585;DHT22;7379;51.506;11.876;2022-09-29T01:33:10;10.80;96.40
14585;DHT22;7379;51.506;11.876;2022-09-29T01:35:47;10.80;96.40
14585;DHT22;7379;51.506;11.876;2022-09-29T01:38:30;10.80;96.40
14585;DHT22;7379;51.506;11.876;2022-09-29T01:41:05;10.80;96.40
14585;DHT22;7379;51.506;11.876;2022-09-29T01:43:39;10.80;96.40
14585;DHT22;7379;51.506;11.876;2022-09-29T01:46:10;10.80;96.40
14585;DHT22;7379;51.506;11.876;2022-09-29T01:48:43;10.80;96.40
14585;DHT22;7379;51.506;11.876;2022-09-29T01:51:15;10.80;96.40
14585;DHT22;7379;51.506;11.876;2022-09-29T01:53:47;10.80;96.40
14585;DHT22;7379;51.506;11.876;2022-09-29T01:56:18;10.80;96.40
14585;DHT22;7379;51.506;11.876;2022-09-29T01:58:51;10.70;96.30
14585;DHT22;7379;51.506;11.876;2022-09-29T02:01:22;10.70;96.30
14585;DHT22;7379;51.506;11.876;2022-09-29T02:03:53;10.70;96.30
14585;DHT22;7379;51.506;11.876;2022-09-29T02:06:26;10.70;96.40
14585;DHT22;7379;51.506;11.876;2022-09-29T02:08:57;10.70;96.30
14585;DHT22;7379;51.506;11.876;2022-09-29T02:11:25;10.70;96.30
14585;DHT22;7379;51.506;11.876;2022-09-29T02:13:57;10.70;96.30
14585;DHT22;7379;51.506;11.876;2022-09-29T02:16:28;10.70;96.40
14585;DHT22;7379;51.506;11.876;2022-09-29T02:19:01;10.60;96.30
14585;DHT22;7379;51.506;11.876;2022-09-29T02:21:28;10.70;96.30
14585;DHT22;7379;51.506;11.876;2022-09-29T02:23:55;10.60;96.30
14585;DHT22;7379;51.506;11.876;2022-09-29T02:26:23;10.60;96.30
14585;DHT22;7379;51.506;11.876;2022-09-29T02:28:52;10.60;96.30
14585;DHT22;7379;51.506;11.876;2022-09-29T02:31:20;10.60;96.30
14585;DHT22;7379;51.506;11.876;2022-09-29T02:33:46;10.60;96.30
14585;DHT22;7379;51.506;11.876;2022-09-29T02:36:21;10.60;96.30
14585;DHT22;7379;51.506;11.876;2022-09-29T02:38:54;10.60;96.30
14585;DHT22;7379;51.506;11.876;2022-09-29T02:41:39;10.60;96.30
14585;DHT22;7379;51.506;11.876;2022-09-29T02:44:19;10.60;96.30
14585;DHT22;7379;51.506;11.876;2022-09-29T02:47:00;10.60;96.30
14585;DHT22;7379;51.506;11.876;2022-09-29T02:49:38;10.60;96.30
14585;DHT22;7379;51.506;11.876;2022-09-29T02:52:17;10.60;96.30
14585;DHT22;7379;51.506;11.876;2022-09-29T02:54:56;10.60;96.30
14585;DHT22;7379;51.506;11.876;2022-09-29T02:57:32;10.50;96.20
14585;DHT22;7379;51.506;11.876;2022-09-29T03:00:03;10.50;96.20
14585;DHT22;7379;51.506;11.876;2022-09-29T03:02:36;10.50;96.30
14585;DHT22;7379;51.506;11.876;2022-09-29T03:05:05;10.50;96.30
14585;DHT22;7379;51.506;11.876;2022-09-29T03:07:33;10.50;96.20
14585;DHT22;7379;51.506;11.876;2022-09-29T03:10:01;10.50;96.20
14585;DHT22;7379;51.506;11.876;2022-09-29T03:12:28;10.50;96.30
14585;DHT22;7379;51.506;11.876;2022-09-29T03:14:55;10.50;96.20
14585;DHT22;7379;51.506;11.876;2022-09-29T03:17:22;10.50;96.30
14585;DHT22;7379;51.506;11.876;2022-09-29T03:19:49;10.50;96.30
14585;DHT22;7379;51.506;11.876;2022-09-29T03:22:15;10.50;96.30
14585;DHT22;7379;51.506;11.876;2022-09-29T03:24:45;10.50;96.20
14585;DHT22;7379;51.506;11.876;2022-09-29T03:27:11;10.50;96.20
14585;DHT22;7379;51.506;11.876;2022-09-29T03:29:38;10.40;96.20
14585;DHT22;7379;51.506;11.876;2022-09-29T03:32:05;10.40;96.20
14585;DHT22;7379;51.506;11.876;2022-09-29T03:34:33;10.40;96.20
14585;DHT22;7379;51.506;11.876;2022-09-29T03:37:00;10.40;96.20
14585;DHT22;7379;51.506;11.876;2022-09-29T03:39:26;10.40;96.50
14585;DHT22;7379;51.506;11.876;2022-09-29T03:41:55;10.40;96.20
14585;DHT22;7379;51.506;11.876;2022-09-29T03:44:22;10.40;96.20
14585;DHT22;7379;51.506;11.876;2022-09-29T03:46:48;10.40;96.20
14585;DHT22;7379;51.506;11.876;2022-09-29T03:49:15;10.40;96.20
14585;DHT22;7379;51.506;11.876;2022-09-29T03:51:42;10.40;96.10
14585;DHT22;7379;51.506;11.876;2022-09-29T03:54:09;10.40;96.10
14585;DHT22;7379;51.506;11.876;2022-09-29T03:56:36;10.40;96.10
14585;DHT22;7379;51.506;11.876;2022-09-29T03:59:05;10.30;96.10
14585;DHT22;7379;51.506;11.876;2022-09-29T04:01:33;10.30;96.10
14585;DHT22;7379;51.506;11.876;2022-09-29T04:04:00;10.30;96.10
14585;DHT22;7379;51.506;11.876;2022-09-29T04:06:27;10.30;96.10
14585;DHT22;7379;51.506;11.876;2022-09-29T04:08:54;10.30;96.10
14585;DHT22;7379;51.506;11.876;2022-09-29T04:11:21;10.30;96.10
14585;DHT22;7379;51.506;11.876;2022-09-29T04:13:48;10.30;96.10
14585;DHT22;7379;51.506;11.876;2022-09-29T04:16:16;10.30;96.10
14585;DHT22;7379;51.506;11.876;2022-09-29T04:18:43;10.30;96.00
14585;DHT22;7379;51.506;11.876;2022-09-29T04:21:10;10.30;96.00
14585;DHT22;7379;51.506;11.876;2022-09-29T04:23:37;10.30;96.00
14585;DHT22;7379;51.506;11.876;2022-09-29T04:26:04;10.30;96.00
14585;DHT22;7379;51.506;11.876;2022-09-29T04:28:32;10.20;96.00
14585;DHT22;7379;51.506;11.876;2022-09-29T04:30:59;10.20;96.00
14585;DHT22;7379;51.506;11.876;2022-09-29T04:33:27;10.20;96.00
14585;DHT22;7379;51.506;11.876;2022-09-29T04:35:55;10.20;96.00
14585;DHT22;7379;51.506;11.876;2022-09-29T04:38:22;10.20;96.00
14585;DHT22;7379;51.506;11.876;2022-09-29T04:40:49;10.20;96.00
14585;DHT22;7379;51.506;11.876;2022-09-29T04:43:16;10.20;96.00
14585;DHT22;7379;51.506;11.876;2022-09-29T04:45:42;10.20;95.90
14585;DHT22;7379;51.506;11.876;2022-09-29T04:48:09;10.20;95.90
14585;DHT22;7379;51.506;11.876;2022-09-29T04:50:37;10.20;95.90
14585;DHT22;7379;51.506;11.876;2022-09-29T04:53:05;10.20;95.90
14585;DHT22;7379;51.506;11.876;2022-09-29T04:55:32;10.20;95.90
14585;DHT22;7379;51.506;11.876;2022-09-29T04:57:59;10.20;95.90
14585;DHT22;7379;51.506;11.876;2022-09-29T05:00:26;10.10;95.90
14585;DHT22;7379;51.506;11.876;2022-09-29T05:02:52;10.10;95.90
14585;DHT22;7379;51.506;11.876;2022-09-29T05:05:19;10.10;95.90
14585;DHT22;7379;51.506;11.876;2022-09-29T05:07:47;10.10;95.90
14585;DHT22;7379;51.506;11.876;2022-09-29T05:10:14;10.10;95.80
14585;DHT22;7379;51.506;11.876;2022-09-29T05:12:46;10.10;95.80
14585;DHT22;7379;51.506;11.876;2022-09-29T05:15:14;10.10;95.80
14585;DHT22;7379;51.506;11.876;2022-09-29T05:17:41;10.10;95.70
14585;DHT22;7379;51.506;11.876;2022-09-29T05:20:09;10.10;95.70
14585;DHT22;7379;51.506;11.876;2022-09-29T05:22:35;10.10;95.70
14585;DHT22;7379;51.506;11.876;2022-09-29T05:25:05;10.10;95.70
14585;DHT22;7379;51.506;11.876;2022-09-29T05:27:34;10.10;95.60
14585;DHT22;7379;51.506;11.876;2022-09-29T05:30:01;10.00;95.60
14585;DHT22;7379;51.506;11.876;2022-09-29T05:32:28;10.00;95.50
14585;DHT22;7379;51.506;11.876;2022-09-29T05:34:55;10.00;95.50
14585;DHT22;7379;51.506;11.876;2022-09-29T05:37:22;10.00;95.50
14585;DHT22;7379;51.506;11.876;2022-09-29T05:39:49;10.00;95.50
14585;DHT22;7379;51.506;11.876;2022-09-29T05:42:17;10.00;95.50
14585;DHT22;7379;51.506;11.876;2022-09-29T05:44:44;10.00;95.50
14585;DHT22;7379;51.506;11.876;2022-09-29T05:47:11;10.00;95.50
14585;DHT22;7379;51.506;11.876;2022-09-29T05:49:38;9.90;95.90
14585;DHT22;7379;51.506;11.876;2022-09-29T05:52:05;9.90;95.90
14585;DHT22;7379;51.506;11.876;2022-09-29T05:54:32;9.90;95.90
14585;DHT22;7379;51.506;11.876;2022-09-29T05:56:58;9.90;95.90
14585;DHT22;7379;51.506;11.876;2022-09-29T05:59:26;9.90;95.90
14585;DHT22;7379;51.506;11.876;2022-09-29T06:01:53;9.90;95.90
14585;DHT22;7379;51.506;11.876;2022-09-29T06:04:20;9.90;95.90
14585;DHT22;7379;51.506;11.876;2022-09-29T06:06:47;9.90;95.90
14585;DHT22;7379;51.506;11.876;2022-09-29T06:09:14;9.90;96.00
14585;DHT22;7379;51.506;11.876;2022-09-29T06:11:41;9.90;96.00
14585;DHT22;7379;51.506;11.876;2022-09-29T06:14:07;9.90;96.00
14585;DHT22;7379;51.506;11.876;2022-09-29T06:16:35;9.90;96.00
14585;DHT22;7379;51.506;11.876;2022-09-29T06:19:03;9.90;96.00
14585;DHT22;7379;51.506;11.876;2022-09-29T06:21:31;9.90;96.00
14585;DHT22;7379;51.506;11.876;2022-09-29T06:24:00;9.90;96.00
14585;DHT22;7379;51.506;11.876;2022-09-29T06:26:27;9.80;96.00
14585;DHT22;7379;51.506;11.876;2022-09-29T06:28:55;9.80;96.00
14585;DHT22;7379;51.506;11.876;2022-09-29T06:31:24;9.80;96.00
14585;DHT22;7379;51.506;11.876;2022-09-29T06:33:55;9.80;96.00
14585;DHT22;7379;51.506;11.876;2022-09-29T06:36:25;9.80;96.30
14585;DHT22;7379;51.506;11.876;2022-09-29T06:39:12;9.80;96.00
14585;DHT22;7379;51.506;11.876;2022-09-29T06:41:39;9.80;96.00
14585;DHT22;7379;51.506;11.876;2022-09-29T06:44:07;9.80;96.00
14585;DHT22;7379;51.506;11.876;2022-09-29T06:46:34;9.80;96.00
14585;DHT22;7379;51.506;11.876;2022-09-29T06:49:03;9.80;96.00
14585;DHT22;7379;51.506;11.876;2022-09-29T06:51:29;9.80;96.00
14585;DHT22;7379;51.506;11.876;2022-09-29T06:53:56;9.80;96.00
14585;DHT22;7379;51.506;11.876;2022-09-29T06:56:23;9.80;96.10
14585;DHT22;7379;51.506;11.876;2022-09-29T06:58:50;9.80;96.10
14585;DHT22;7379;51.506;11.876;2022-09-29T07:01:16;9.80;96.10
14585;DHT22;7379;51.506;11.876;2022-09-29T07:03:43;9.70;96.10
14585;DHT22;7379;51.506;11.876;2022-09-29T07:06:11;9.70;96.10
14585;DHT22;7379;51.506;11.876;2022-09-29T07:08:38;9.80;96.10
14585;DHT22;7379;51.506;11.876;2022-09-29T07:11:06;9.80;96.20
14585;DHT22;7379;51.506;11.876;2022-09-29T07:13:34;9.80;96.30
14585;DHT22;7379;51.506;11.876;2022-09-29T07:16:05;9.80;96.20
14585;DHT22;7379;51.506;11.876;2022-09-29T07:18:35;9.80;96.20
14585;DHT22;7379;51.506;11.876;2022-09-29T07:21:02;9.80;96.20
14585;DHT22;7379;51.506;11.876;2022-09-29T07:23:31;9.80;96.20
14585;DHT22;7379;51.506;11.876;2022-09-29T07:25:58;9.80;96.30
14585;DHT22;7379;51.506;11.876;2022-09-29T07:28:26;9.80;96.30
14585;DHT22;7379;51.506;11.876;2022-09-29T07:30:59;9.80;96.30
14585;DHT22;7379;51.506;11.876;2022-09-29T07:33:26;9.90;96.30
14585;DHT22;7379;51.506;11.876;2022-09-29T07:35:53;9.90;96.30
14585;DHT22;7379;51.506;11.876;2022-09-29T07:38:20;9.90;96.30
14585;DHT22;7379;51.506;11.876;2022-09-29T07:40:48;9.90;96.40
14585;DHT22;7379;51.506;11.876;2022-09-29T07:43:15;9.90;96.40
14585;DHT22;7379;51.506;11.876;2022-09-29T07:45:47;9.90;96.50
14585;DHT22;7379;51.506;11.876;2022-09-29T07:48:14;9.90;96.50
14585;DHT22;7379;51.506;11.876;2022-09-29T07:50:41;9.90;96.80
14585;DHT22;7379;51.506;11.876;2022-09-29T07:53:08;9.90;96.50
14585;DHT22;7379;51.506;11.876;2022-09-29T07:55:35;9.90;96.50
14585;DHT22;7379;51.506;11.876;2022-09-29T07:58:04;10.00;96.00
14585;DHT22;7379;51.506;11.876;2022-09-29T08:00:31;10.00;96.00
14585;DHT22;7379;51.506;11.876;2022-09-29T08:02:59;10.00;96.00
14585;DHT22;7379;51.506;11.876;2022-09-29T08:05:27;10.00;96.10
14585;DHT22;7379;51.506;11.876;2022-09-29T08:07:54;10.00;96.10
14585;DHT22;7379;51.506;11.876;2022-09-29T08:10:22;10.00;96.40
14585;DHT22;7379;51.506;11.876;2022-09-29T08:12:49;10.00;96.10
14585;DHT22;7379;51.506;11.876;2022-09-29T08:15:17;10.00;96.30
14585;DHT22;7379;51.506;11.876;2022-09-29T08:17:44;10.00;96.20
14585;DHT22;7379;51.506;11.876;2022-09-29T08:20:10;10.00;96.10
14585;DHT22;7379;51.506;11.876;2022-09-29T08:22:37;10.10;96.30
14585;DHT22;7379;51.506;11.876;2022-09-29T08:25:04;10.10;96.30
14585;DHT22;7379;51.506;11.876;2022-09-29T08:27:32;10.10;96.30
14585;DHT22;7379;51.506;11.876;2022-09-29T08:29:59;10.10;96.30
14585;DHT22;7379;51.506;11.876;2022-09-29T08:32:27;10.10;96.30
14585;DHT22;7379;51.506;11.876;2022-09-29T08:34:54;10.00;96.20
14585;DHT22;7379;51.506;11.876;2022-09-29T08:37:20;10.10;96.30
14585;DHT22;7379;51.506;11.876;2022-09-29T08:39:47;10.10;96.30
14585;DHT22;7379;51.506;11.876;2022-09-29T08:42:21;10.10;96.40
14585;DHT22;7379;51.506;11.876;2022-09-29T08:44:53;10.10;96.40
14585;DHT22;7379;51.506;11.876;2022-09-29T08:47:27;10.10;96.40
14585;DHT22;7379;51.506;11.876;2022-09-29T08:49:57;10.10;96.40
14585;DHT22;7379;51.506;11.876;2022-09-29T08:52:28;10.10;96.50
14585;DHT22;7379;51.506;11.876;2022-09-29T08:55:01;10.00;96.70
14585;DHT22;7379;51.506;11.876;2022-09-29T08:57:31;10.10;96.50
14585;DHT22;7379;51.506;11.876;2022-09-29T09:00:00;10.10;96.50
14585;DHT22;7379;51.506;11.876;2022-09-29T09:05:46;10.10;96.60
14585;DHT22;7379;51.506;11.876;2022-09-29T09:08:25;10.10;96.60
14585;DHT22;7379;51.506;11.876;2022-09-29T09:11:03;10.00;96.60
14585;DHT22;7379;51.506;11.876;2022-09-29T09:13:45;10.10;96.70
14585;DHT22;7379;51.506;11.876;2022-09-29T09:16:22;10.10;96.80
14585;DHT22;7379;51.506;11.876;2022-09-29T09:19:02;10.10;96.80
14585;DHT22;7379;51.506;11.876;2022-09-29T09:21:40;10.10;96.80
14585;DHT22;7379;51.506;11.876;2022-09-29T09:24:18;10.10;96.80
14585;DHT22;7379;51.506;11.876;2022-09-29T09:26:47;10.10;96.90
14585;DHT22;7379;51.506;11.876;2022-09-29T09:29:19;10.20;96.90
14585;DHT22;7379;51.506;11.876;2022-09-29T09:31:53;10.10;97.00
14585;DHT22;7379;51.506;11.876;2022-09-29T09:34:24;10.20;96.90
14585;DHT22;7379;51.506;11.876;2022-09-29T09:36:54;10.20;97.30
14585;DHT22;7379;51.506;11.876;2022-09-29T09:39:28;10.10;96.90
14585;DHT22;7379;51.506;11.876;2022-09-29T09:41:58;10.20;96.90
14585;DHT22;7379;51.506;11.876;2022-09-29T09:44:28;10.20;97.10
14585;DHT22;7379;51.506;11.876;2022-09-29T09:47:01;10.20;97.10
14585;DHT22;7379;51.506;11.876;2022-09-29T09:49:33;10.20;97.20
14585;DHT22;7379;51.506;11.876;2022-09-29T09:52:08;10.20;97.10
14585;DHT22;7379;51.506;11.876;2022-09-29T09:54:39;10.30;97.10
14585;DHT22;7379;51.506;11.876;2022-09-29T09:57:34;10.30;97.10
14585;DHT22;7379;51.506;11.876;2022-09-29T10:00:09;10.30;97.50
14585;DHT22;7379;51.506;11.876;2022-09-29T10:02:42;10.30;97.20
14585;DHT22;7379;51.506;11.876;2022-09-29T10:05:11;10.30;97.20
14585;DHT22;7379;51.506;11.876;2022-09-29T10:07:40;10.30;97.40
14585;DHT22;7379;51.506;11.876;2022-09-29T10:10:15;10.30;97.30
14585;DHT22;7379;51.506;11.876;2022-09-29T10:12:42;10.40;97.70
14585;DHT22;7379;51.506;11.876;2022-09-29T10:15:17;10.40;97.80
14585;DHT22;7379;51.506;11.876;2022-09-29T10:17:49;10.40;97.70
14585;DHT22;7379;51.506;11.876;2022-09-29T10:20:31;10.50;97.90
14585;DHT22;7379;51.506;11.876;2022-09-29T10:25:57;10.50;97.90
14585;DHT22;7379;51.506;11.876;2022-09-29T10:28:26;10.50;97.90
14585;DHT22;7379;51.506;11.876;2022-09-29T10:30:54;10.50;97.80
14585;DHT22;7379;51.506;11.876;2022-09-29T10:33:23;10.50;97.50
14585;DHT22;7379;51.506;11.876;2022-09-29T10:36:05;10.50;97.90
14585;DHT22;7379;51.506;11.876;2022-09-29T10:38:33;10.60;98.00
14585;DHT22;7379;51.506;11.876;2022-09-29T10:41:05;10.60;98.10
14585;DHT22;7379;51.506;11.876;2022-09-29T10:43:35;10.70;97.80
14585;DHT22;7379;51.506;11.876;2022-09-29T10:46:03;10.80;97.90
14585;DHT22;7379;51.506;11.876;2022-09-29T10:48:30;10.70;97.40
14585;DHT22;7379;51.506;11.876;2022-09-29T10:50:59;10.70;97.30
14585;DHT22;7379;51.506;11.876;2022-09-29T10:53:34;10.80;97.40
14585;DHT22;7379;51.506;11.876;2022-09-29T10:56:09;10.80;97.20
14585;DHT22;7379;51.506;11.876;2022-09-29T10:58:41;10.80;97.30
14585;DHT22;7379;51.506;11.876;2022-09-29T11:01:11;10.80;97.20
14585;DHT22;7379;51.506;11.876;2022-09-29T11:03:39;10.80;97.10
14585;DHT22;7379;51.506;11.876;2022-09-29T11:06:12;10.80;97.10
14585;DHT22;7379;51.506;11.876;2022-09-29T11:08:56;10.90;97.80
14585;DHT22;7379;51.506;11.876;2022-09-29T11:11:26;11.00;97.60
14585;DHT22;7379;51.506;11.876;2022-09-29T11:13:54;11.10;97.50
14585;DHT22;7379;51.506;11.876;2022-09-29T11:16:28;11.10;97.00
14585;DHT22;7379;51.506;11.876;2022-09-29T11:18:58;11.10;97.30
14585;DHT22;7379;51.506;11.876;2022-09-29T11:21:48;11.20;97.50
14585;DHT22;7379;51.506;11.876;2022-09-29T11:24:25;11.20;97.00
14585;DHT22;7379;51.506;11.876;2022-09-29T11:27:03;11.20;96.90
14585;DHT22;7379;51.506;11.876;2022-09-29T11:29:40;11.20;97.30
14585;DHT22;7379;51.506;11.876;2022-09-29T11:32:21;11.20;97.00
14585;DHT22;7379;51.506;11.876;2022-09-29T11:35:12;11.20;96.80
14585;DHT22;7379;51.506;11.876;2022-09-29T11:40:40;11.30;97.20
14585;DHT22;7379;51.506;11.876;2022-09-29T11:43:25;11.30;97.20
14585;DHT22;7379;51.506;11.876;2022-09-29T11:46:02;11.30;97.00
14585;DHT22;7379;51.506;11.876;2022-09-29T11:48:48;11.30;96.80
14585;DHT22;7379;51.506;11.876;2022-09-29T11:51:26;11.40;97.10
14585;DHT22;7379;51.506;11.876;2022-09-29T11:54:06;11.40;97.00
14585;DHT22;7379;51.506;11.876;2022-09-29T11:56:43;11.50;96.90
14585;DHT22;7379;51.506;11.876;2022-09-29T11:59:22;11.60;96.80
14585;DHT22;7379;51.506;11.876;2022-09-29T12:02:02;11.70;96.60
14585;DHT22;7379;51.506;11.876;2022-09-29T12:04:45;11.70;96.60
14585;DHT22;7379;51.506;11.876;2022-09-29T12:07:23;11.70;96.80
14585;DHT22;7379;51.506;11.876;2022-09-29T12:10:18;11.70;96.80
14585;DHT22;7379;51.506;11.876;2022-09-29T12:12:52;11.80;96.60
14585;DHT22;7379;51.506;11.876;2022-09-29T12:15:32;11.80;96.70
14585;DHT22;7379;51.506;11.876;2022-09-29T12:18:03;11.90;96.50
14585;DHT22;7379;51.506;11.876;2022-09-29T12:20:35;11.90;96.40
14585;DHT22;7379;51.506;11.876;2022-09-29T12:23:09;11.90;96.60
14585;DHT22;7379;51.506;11.876;2022-09-29T12:25:51;12.00;96.30
14585;DHT22;7379;51.506;11.876;2022-09-29T12:28:23;12.10;96.10
14585;DHT22;7379;51.506;11.876;2022-09-29T12:30:57;12.10;95.90
14585;DHT22;7379;51.506;11.876;2022-09-29T12:33:29;12.10;96.10
14585;DHT22;7379;51.506;11.876;2022-09-29T12:36:07;12.20;96.00
14585;DHT22;7379;51.506;11.876;2022-09-29T12:39:00;12.20;95.70
14585;DHT22;7379;51.506;11.876;2022-09-29T12:41:31;12.20;95.90
14585;DHT22;7379;51.506;11.876;2022-09-29T12:44:06;12.20;95.80
14585;DHT22;7379;51.506;11.876;2022-09-29T12:46:44;12.20;96.30
14585;DHT22;7379;51.506;11.876;2022-09-29T12:49:18;12.20;95.90
14585;DHT22;7379;51.506;11.876;2022-09-29T12:51:48;12.30;95.80
14585;DHT22;7379;51.506;11.876;2022-09-29T12:54:19;12.50;95.60
14585;DHT22;7379;51.506;11.876;2022-09-29T12:56:51;12.50;95.60
14585;DHT22;7379;51.506;11.876;2022-09-29T12:59:27;12.50;95.70
14585;DHT22;7379;51.506;11.876;2022-09-29T13:01:57;12.40;96.00
14585;DHT22;7379;51.506;11.876;2022-09-29T13:04:56;12.40;95.70
14585;DHT22;7379;51.506;11.876;2022-09-29T13:07:54;12.30;95.60
14585;DHT22;7379;51.506;11.876;2022-09-29T13:10:34;12.30;95.60
14585;DHT22;7379;51.506;11.876;2022-09-29T13:13:26;12.30;95.60
14585;DHT22;7379;51.506;11.876;2022-09-29T13:16:04;12.30;95.60
14585;DHT22;7379;51.506;11.876;2022-09-29T13:21:51;12.40;95.70
14585;DHT22;7379;51.506;11.876;2022-09-29T13:24:29;12.40;95.50
14585;DHT22;7379;51.506;11.876;2022-09-29T13:27:25;12.40;95.40
14585;DHT22;7379;51.506;11.876;2022-09-29T13:29:59;12.50;95.30
14585;DHT22;7379;51.506;11.876;2022-09-29T13:32:28;12.40;95.40
14585;DHT22;7379;51.506;11.876;2022-09-29T13:34:58;12.40;95.30
14585;DHT22;7379;51.506;11.876;2022-09-29T13:37:34;12.50;95.20
14585;DHT22;7379;51.506;11.876;2022-09-29T13:40:17;12.70;94.70
14585;DHT22;7379;51.506;11.876;2022-09-29T13:42:45;12.80;94.70
14585;DHT22;7379;51.506;11.876;2022-09-29T13:48:00;12.80;94.70
14585;DHT22;7379;51.506;11.876;2022-09-29T13:50:41;12.80;94.80
14585;DHT22;7379;51.506;11.876;2022-09-29T13:53:34;12.80;94.80
14585;DHT22;7379;51.506;11.876;2022-09-29T13:56:14;12.80;94.80
14585;DHT22;7379;51.506;11.876;2022-09-29T13:58:57;12.80;94.80
14585;DHT22;7379;51.506;11.876;2022-09-29T14:01:30;12.70;94.80
14585;DHT22;7379;51.506;11.876;2022-09-29T14:07:35;13.00;94.10
14585;DHT22;7379;51.506;11.876;2022-09-29T14:10:14;13.10;94.20
14585;DHT22;7379;51.506;11.876;2022-09-29T14:12:44;13.00;94.30
14585;DHT22;7379;51.506;11.876;2022-09-29T14:15:15;12.90;94.50
14585;DHT22;7379;51.506;11.876;2022-09-29T14:17:46;12.90;94.60
14585;DHT22;7379;51.506;11.876;2022-09-29T14:20:18;12.90;94.70
14585;DHT22;7379;51.506;11.876;2022-09-29T14:22:57;12.90;94.80
14585;DHT22;7379;51.506;11.876;2022-09-29T14:28:38;12.80;94.80
14585;DHT22;7379;51.506;11.876;2022-09-29T14:31:19;12.80;94.90
14585;DHT22;7379;51.506;11.876;2022-09-29T14:33:47;12.80;94.90
14585;DHT22;7379;51.506;11.876;2022-09-29T14:36:18;12.80;94.90
14585;DHT22;7379;51.506;11.876;2022-09-29T14:38:48;12.80;94.90
14585;DHT22;7379;51.506;11.876;2022-09-29T14:41:23;12.70;94.80
14585;DHT22;7379;51.506;11.876;2022-09-29T14:43:54;12.70;95.00
14585;DHT22;7379;51.506;11.876;2022-09-29T14:46:54;12.70;94.90
14585;DHT22;7379;51.506;11.876;2022-09-29T14:53:10;12.80;95.00
14585;DHT22;7379;51.506;11.876;2022-09-29T14:55:46;12.80;95.10
14585;DHT22;7379;51.506;11.876;2022-09-29T14:58:28;12.80;95.10
14585;DHT22;7379;51.506;11.876;2022-09-29T15:01:04;12.80;95.10
14585;DHT22;7379;51.506;11.876;2022-09-29T15:03:41;12.80;95.10
14585;DHT22;7379;51.506;11.876;2022-09-29T15:06:12;12.80;95.10
14585;DHT22;7379;51.506;11.876;2022-09-29T15:08:40;12.80;95.10
14585;DHT22;7379;51.506;11.876;2022-09-29T15:11:28;12.80;94.90
14585;DHT22;7379;51.506;11.876;2022-09-29T15:13:56;12.80;94.90
14585;DHT22;7379;51.506;11.876;2022-09-29T15:16:31;12.90;94.80
14585;DHT22;7379;51.506;11.876;2022-09-29T15:19:26;13.00;94.80
14585;DHT22;7379;51.506;11.876;2022-09-29T15:22:04;13.00;94.70
14585;DHT22;7379;51.506;11.876;2022-09-29T15:24:47;13.00;94.70
14585;DHT22;7379;51.506;11.876;2022-09-29T15:27:16;13.10;94.60
14585;DHT22;7379;51.506;11.876;2022-09-29T15:29:45;13.10;94.50
14585;DHT22;7379;51.506;11.876;2022-09-29T15:32:20;13.10;94.50
14585;DHT22;7379;51.506;11.876;2022-09-29T15:34:49;13.10;94.60
14585;DHT22;7379;51.506;11.876;2022-09-29T15:37:16;13.10;94.50
14585;DHT22;7379;51.506;11.876;2022-09-29T15:39:47;13.10;94.40
14585;DHT22;7379;51.506;11.876;2022-09-29T15:42:17;13.10;94.30
14585;DHT22;7379;51.506;11.876;2022-09-29T15:44:51;13.10;94.50
14585;DHT22;7379;51.506;11.876;2022-09-29T15:47:25;13.10;94.60
14585;DHT22;7379;51.506;11.876;2022-09-29T15:49:53;13.00;94.60
14585;DHT22;7379;51.506;11.876;2022-09-29T15:52:20;13.00;94.70
14585;DHT22;7379;51.506;11.876;2022-09-29T15:54:56;13.00;94.70
14585;DHT22;7379;51.506;11.876;2022-09-29T15:57:40;13.00;94.80
14585;DHT22;7379;51.506;11.876;2022-09-29T16:03:23;12.90;94.90
14585;DHT22;7379;51.506;11.876;2022-09-29T16:06:01;12.90;95.10
14585;DHT22;7379;51.506;11.876;2022-09-29T16:08:29;12.90;95.10
14585;DHT22;7379;51.506;11.876;2022-09-29T16:10:59;12.80;95.10
14585;DHT22;7379;51.506;11.876;2022-09-29T16:13:28;12.80;95.20
14585;DHT22;7379;51.506;11.876;2022-09-29T16:15:58;12.80;95.20
14585;DHT22;7379;51.506;11.876;2022-09-29T16:18:29;12.80;95.30
14585;DHT22;7379;51.506;11.876;2022-09-29T16:20:57;12.80;95.40
14585;DHT22;7379;51.506;11.876;2022-09-29T16:23:27;12.80;95.20
14585;DHT22;7379;51.506;11.876;2022-09-29T16:26:17;12.80;95.40
14585;DHT22;7379;51.506;11.876;2022-09-29T16:31:46;12.70;95.40
14585;DHT22;7379;51.506;11.876;2022-09-29T16:34:31;12.80;95.50